KBMG/BMG METAR and TAF weather

Enter ICAO airport designator
Station Type Date Time Source
KBMG METAR 2021/05/13 05:53 UTC NOAA

KBMG 130553Z AUTO 00000KT 10SM CLR 06/03 A3037 RMK AO2 SLP286 T00560028 10150 20050 53002


Station Type Date Time Source
KBMG Decoded METAR 2021/05/13 05:53 UTC NOAA

MONROE COUNTY AIRPORT, IN, United States (KBMG) 39-09N 086-37W 257M
May 13, 2021 - 01:53 AM EDT / 2021.05.13 0553 UTC
Wind: Calm:0
Visibility: 10 mile(s):0
Sky conditions: clear
Temperature: 42.1 F (5.6 C)
Dew Point: 37.0 F (2.8 C)
Relative Humidity: 82%
Pressure (altimeter): 30.37 in. Hg (1028 hPa)
Pressure tendency: 0.01 inches (0.2 hPa) higher than three hours ago
ob: KBMG 130553Z AUTO 00000KT 10SM CLR 06/03 A3037 RMK AO2 SLP286 T00560028 10150 20050 53002
cycle: 6

Station Type Date Time Source
KBMG TAF 2021/05/13 06:21 UTC NOAA

TAF KBMG 130520Z 1306/1406 VRB03KT P6SM SKC
FM132000 03006KT P6SM SCT060
AMD LTD TO CLD VIS AND WIND TIL 131300

Example: see airport list